^^
Your Local Weather - Clay, NY Station Historical Data
Daily Summary for February 6, 2018 Units:  Both    English   Metric
« Previous Day
Next Day »
Daily Weekly Monthly Yearly Custom
  High: Low: Average:
Temperature: 27.6 °F /  -2.4 °C 9.1 °F /  -12.7 °C 18.8 °F /  -7.3 °C
Dew Point: 18.8 °F /  -7.3 °C 4.7 °F /  -15.2 °C 12.5 °F /  -10.8 °C
Humidity: 89% 61% 77%
Wind Speed: 5.0mph /  8km/h - 1.2mph /  1.9km/h
Wind Gust: 10.0mph /  16.1km/h - -
Wind- - WSW
Pressure: 30.49 in /  1032.4 hPa 30.19 in /  1022.2 hPa -
Precipitation: 0.00 in /  0 mm    
Historical Graphs
 
 
Tabular Data for February 6, 2018
Time Temperature Dew Point Pressure Wind Wind Speed Wind Gust Humidity Rainfall Rate (Hourly) solar
00:00 12.4 °F /  -10.9 °C 8.2 °F /  -13.2 °C 30.22in /  1023.2hPa Calm     83% 0.00in /  0mm 0 W/m2
00:06 12.4 °F /  -10.9 °C 8.2 °F /  -13.2 °C 30.23in /  1023.6hPa Calm     83% 0.00in /  0mm 0 W/m2
00:12 12.5 °F /  -10.8 °C 8.3 °F /  -13.2 °C 30.22in /  1023.2hPa Calm     83% 0.00in /  0mm 0 W/m2
00:18 12.7 °F /  -10.7 °C 8.5 °F /  -13.1 °C 30.22in /  1023.2hPa Calm     83% 0.00in /  0mm 0 W/m2
00:24 12.9 °F /  -10.6 °C 8.7 °F /  -12.9 °C 30.22in /  1023.2hPa Calm     83% 0.00in /  0mm 0 W/m2
00:30 13.0 °F /  -10.6 °C 8.8 °F /  -12.9 °C 30.21in /  1022.9hPa Calm     83% 0.00in /  0mm 0 W/m2
00:36 13.2 °F /  -10.4 °C 9.0 °F /  -12.8 °C 30.22in /  1023.2hPa Calm     83% 0.00in /  0mm 0 W/m2
00:42 13.4 °F /  -10.3 °C 9.2 °F /  -12.7 °C 30.22in /  1023.2hPa Calm     83% 0.00in /  0mm 0 W/m2
00:48 13.9 °F /  -10.1 °C 9.7 °F /  -12.4 °C 30.23in /  1023.6hPa Calm   2.0mph /  3.2km/h 83% 0.00in /  0mm 0 W/m2
00:54 14.1 °F /  -9.9 °C 9.9 °F /  -12.3 °C 30.23in /  1023.6hPa West 1.0mph /  1.6km/h 3.0mph /  4.8km/h 83% 0.00in /  0mm 0 W/m2
01:00 14.4 °F /  -9.8 °C 9.9 °F /  -12.3 °C 30.23in /  1023.6hPa West 1.0mph /  1.6km/h 1.0mph /  1.6km/h 82% 0.00in /  0mm 0 W/m2
01:06 14.3 °F /  -9.8 °C 9.5 °F /  -12.5 °C 30.23in /  1023.6hPa West 1.0mph /  1.6km/h 1.0mph /  1.6km/h 81% 0.00in /  0mm 0 W/m2
01:12 14.4 °F /  -9.8 °C 9.6 °F /  -12.4 °C 30.23in /  1023.6hPa Calm     81% 0.00in /  0mm 0 W/m2
02:24 14.6 °F /  -9.7 °C 9.6 °F /  -12.4 °C 30.21in /  1022.9hPa Calm   1.0mph /  1.6km/h 80% 0.00in /  0mm 0 W/m2
02:30 14.6 °F /  -9.7 °C 9.6 °F /  -12.4 °C 30.21in /  1022.9hPa SSE 1.0mph /  1.6km/h 1.0mph /  1.6km/h 80% 0.00in /  0mm 0 W/m2
02:36 14.6 °F /  -9.7 °C 9.6 °F /  -12.4 °C 30.21in /  1022.9hPa SSE 1.0mph /  1.6km/h 1.0mph /  1.6km/h 80% 0.00in /  0mm 0 W/m2
02:42 14.5 °F /  -9.7 °C 9.5 °F /  -12.5 °C 30.21in /  1022.9hPa SSE 1.0mph /  1.6km/h 1.0mph /  1.6km/h 80% 0.00in /  0mm 0 W/m2
02:48 14.5 °F /  -9.7 °C 9.7 °F /  -12.4 °C 30.21in /  1022.9hPa SSE 1.0mph /  1.6km/h 1.0mph /  1.6km/h 81% 0.00in /  0mm 0 W/m2
02:54 14.4 °F /  -9.8 °C 9.6 °F /  -12.4 °C 30.21in /  1022.9hPa Calm   2.0mph /  3.2km/h 81% 0.00in /  0mm 0 W/m2
03:00 14.4 °F /  -9.8 °C 9.9 °F /  -12.3 °C 30.21in /  1022.9hPa Calm     82% 0.00in /  0mm 0 W/m2
03:06 14.4 °F /  -9.8 °C 9.9 °F /  -12.3 °C 30.21in /  1022.9hPa Calm     82% 0.00in /  0mm 0 W/m2
03:12 14.4 °F /  -9.8 °C 10.2 °F /  -12.1 °C 30.21in /  1022.9hPa Calm     83% 0.00in /  0mm 0 W/m2
03:18 14.5 °F /  -9.7 °C 10.3 °F /  -12.1 °C 30.21in /  1022.9hPa Calm     83% 0.00in /  0mm 0 W/m2
03:24 14.5 °F /  -9.7 °C 10.5 °F /  -11.9 °C 30.21in /  1022.9hPa Calm     84% 0.00in /  0mm 0 W/m2
03:30 14.5 °F /  -9.7 °C 10.5 °F /  -11.9 °C 30.20in /  1022.6hPa Calm     84% 0.00in /  0mm 0 W/m2
03:36 14.5 °F /  -9.7 °C 10.5 °F /  -11.9 °C 30.20in /  1022.6hPa Calm     84% 0.00in /  0mm 0 W/m2
03:42 14.5 °F /  -9.7 °C 10.8 °F /  -11.8 °C 30.20in /  1022.6hPa Calm     85% 0.00in /  0mm 0 W/m2
03:48 14.6 °F /  -9.7 °C 10.9 °F /  -11.7 °C 30.20in /  1022.6hPa Calm     85% 0.00in /  0mm 0 W/m2
03:54 14.6 °F /  -9.7 °C 10.9 °F /  -11.7 °C 30.20in /  1022.6hPa Calm     85% 0.00in /  0mm 0 W/m2
04:04 14.6 °F /  -9.7 °C 11.2 °F /  -11.6 °C 30.19in /  1022.2hPa Calm     86% 0.00in /  0mm 0 W/m2
04:10 14.7 °F /  -9.6 °C 11.3 °F /  -11.5 °C 30.19in /  1022.2hPa Calm     86% 0.00in /  0mm 0 W/m2
04:16 14.7 °F /  -9.6 °C 11.3 °F /  -11.5 °C 30.19in /  1022.2hPa Calm   1.0mph /  1.6km/h 86% 0.00in /  0mm 0 W/m2
04:22 14.8 °F /  -9.6 °C 11.4 °F /  -11.4 °C 30.19in /  1022.2hPa Calm     86% 0.00in /  0mm 0 W/m2
04:28 14.9 °F /  -9.5 °C 11.5 °F /  -11.4 °C 30.19in /  1022.2hPa Calm     86% 0.00in /  0mm 0 W/m2
04:34 15.0 °F /  -9.4 °C 11.8 °F /  -11.2 °C 30.19in /  1022.2hPa Calm     87% 0.00in /  0mm 0 W/m2
04:40 15.0 °F /  -9.4 °C 11.8 °F /  -11.2 °C 30.20in /  1022.6hPa Calm     87% 0.00in /  0mm 0 W/m2
04:46 15.1 °F /  -9.4 °C 11.9 °F /  -11.2 °C 30.20in /  1022.6hPa Calm     87% 0.00in /  0mm 0 W/m2
04:52 15.2 °F /  -9.3 °C 12.0 °F /  -11.1 °C 30.20in /  1022.6hPa Calm     87% 0.00in /  0mm 0 W/m2
04:58 15.2 °F /  -9.3 °C 12.0 °F /  -11.1 °C 30.20in /  1022.6hPa Calm     87% 0.00in /  0mm 0 W/m2
05:04 15.2 °F /  -9.3 °C 12.0 °F /  -11.1 °C 30.20in /  1022.6hPa Calm     87% 0.00in /  0mm 0 W/m2
05:10 15.2 °F /  -9.3 °C 12.0 °F /  -11.1 °C 30.20in /  1022.6hPa Calm     87% 0.00in /  0mm 0 W/m2
05:16 15.3 °F /  -9.3 °C 12.1 °F /  -11.1 °C 30.20in /  1022.6hPa Calm   1.0mph /  1.6km/h 87% 0.00in /  0mm 0 W/m2
05:22 15.3 °F /  -9.3 °C 12.1 °F /  -11.1 °C 30.20in /  1022.6hPa Calm     87% 0.00in /  0mm 0 W/m2
05:28 15.3 °F /  -9.3 °C 12.1 °F /  -11.1 °C 30.21in /  1022.9hPa Calm     87% 0.00in /  0mm 0 W/m2
05:34 15.4 °F /  -9.2 °C 12.2 °F /  -11 °C 30.21in /  1022.9hPa Calm     87% 0.00in /  0mm 0 W/m2
05:40 15.4 °F /  -9.2 °C 12.2 °F /  -11 °C 30.21in /  1022.9hPa Calm     87% 0.00in /  0mm 0 W/m2
05:46 15.4 °F /  -9.2 °C 12.5 °F /  -10.8 °C 30.21in /  1022.9hPa Calm     88% 0.00in /  0mm 0 W/m2
05:52 15.5 °F /  -9.2 °C 12.3 °F /  -10.9 °C 30.21in /  1022.9hPa Calm     87% 0.00in /  0mm 0 W/m2
05:58 15.5 °F /  -9.2 °C 12.3 °F /  -10.9 °C 30.21in /  1022.9hPa Calm     87% 0.00in /  0mm 0 W/m2
06:04 15.5 °F /  -9.2 °C 12.3 °F /  -10.9 °C 30.21in /  1022.9hPa Calm     87% 0.00in /  0mm 0 W/m2
06:10 15.5 °F /  -9.2 °C 12.6 °F /  -10.8 °C 30.22in /  1023.2hPa Calm     88% 0.00in /  0mm 0 W/m2
06:16 15.6 °F /  -9.1 °C 12.7 °F /  -10.7 °C 30.22in /  1023.2hPa Calm     88% 0.00in /  0mm 0 W/m2
06:22 15.6 °F /  -9.1 °C 12.7 °F /  -10.7 °C 30.23in /  1023.6hPa Calm     88% 0.00in /  0mm 0 W/m2
06:28 15.7 °F /  -9.1 °C 12.8 °F /  -10.7 °C 30.23in /  1023.6hPa Calm     88% 0.00in /  0mm 0 W/m2
06:34 15.7 °F /  -9.1 °C 12.8 °F /  -10.7 °C 30.23in /  1023.6hPa Calm     88% 0.00in /  0mm 0 W/m2
06:40 15.8 °F /  -9 °C 12.9 °F /  -10.6 °C 30.24in /  1023.9hPa Calm     88% 0.00in /  0mm 0 W/m2
06:46 15.9 °F /  -8.9 °C 13.0 °F /  -10.6 °C 30.24in /  1023.9hPa Calm     88% 0.00in /  0mm 0 W/m2
06:52 15.9 °F /  -8.9 °C 13.0 °F /  -10.6 °C 30.24in /  1023.9hPa Calm     88% 0.00in /  0mm 0 W/m2
06:58 15.9 °F /  -8.9 °C 13.0 °F /  -10.6 °C 30.24in /  1023.9hPa Calm     88% 0.00in /  0mm 0 W/m2
07:04 15.9 °F /  -8.9 °C 13.0 °F /  -10.6 °C 30.25in /  1024.3hPa Calm     88% 0.00in /  0mm 0 W/m2
07:10 15.9 °F /  -8.9 °C 13.0 °F /  -10.6 °C 30.25in /  1024.3hPa Calm     88% 0.00in /  0mm 0 W/m2
07:16 16.0 °F /  -8.9 °C 13.1 °F /  -10.5 °C 30.25in /  1024.3hPa Calm     88% 0.00in /  0mm 0 W/m2
07:22 16.1 °F /  -8.8 °C 13.2 °F /  -10.4 °C 30.25in /  1024.3hPa Calm     88% 0.00in /  0mm 0 W/m2
07:28 16.2 °F /  -8.8 °C 13.3 °F /  -10.4 °C 30.26in /  1024.6hPa Calm     88% 0.00in /  0mm 0 W/m2
07:34 16.3 °F /  -8.7 °C 13.4 °F /  -10.3 °C 30.26in /  1024.6hPa Calm     88% 0.00in /  0mm 0 W/m2
07:40 16.4 °F /  -8.7 °C 13.5 °F /  -10.3 °C 30.26in /  1024.6hPa Calm     88% 0.00in /  0mm 5 W/m2
07:46 16.5 °F /  -8.6 °C 13.6 °F /  -10.2 °C 30.26in /  1024.6hPa Calm     88% 0.00in /  0mm 7 W/m2
07:52 16.8 °F /  -8.4 °C 14.1 °F /  -9.9 °C 30.26in /  1024.6hPa Calm     89% 0.00in /  0mm 16 W/m2
07:58 17.5 °F /  -8.1 °C 14.8 °F /  -9.6 °C 30.26in /  1024.6hPa Calm     89% 0.00in /  0mm 21 W/m2
08:04 18.2 °F /  -7.7 °C 15.5 °F /  -9.2 °C 30.26in /  1024.6hPa Calm   1.0mph /  1.6km/h 89% 0.00in /  0mm 28 W/m2
08:10 18.8 °F /  -7.3 °C 16.1 °F /  -8.8 °C 30.27in /  1024.9hPa SSE 1.0mph /  1.6km/h 1.0mph /  1.6km/h 89% 0.00in /  0mm 30 W/m2
08:16 19.3 °F /  -7.1 °C 16.6 °F /  -8.6 °C 30.27in /  1024.9hPa SSE 1.0mph /  1.6km/h 3.0mph /  4.8km/h 89% 0.00in /  0mm 28 W/m2
08:22 19.6 °F /  -6.9 °C 16.9 °F /  -8.4 °C 30.27in /  1024.9hPa South 1.0mph /  1.6km/h 1.0mph /  1.6km/h 89% 0.00in /  0mm 30 W/m2
08:28 19.9 °F /  -6.7 °C 17.2 °F /  -8.2 °C 30.27in /  1024.9hPa SSW 1.0mph /  1.6km/h 2.0mph /  3.2km/h 89% 0.00in /  0mm 32 W/m2
08:34 20.0 °F /  -6.7 °C 17.3 °F /  -8.2 °C 30.27in /  1024.9hPa SSW 2.0mph /  3.2km/h 3.0mph /  4.8km/h 89% 0.00in /  0mm 35 W/m2
08:40 20.2 °F /  -6.6 °C 17.5 °F /  -8.1 °C 30.27in /  1024.9hPa SSW 1.0mph /  1.6km/h 3.0mph /  4.8km/h 89% 0.00in /  0mm 39 W/m2
08:46 20.5 °F /  -6.4 °C 17.5 °F /  -8.1 °C 30.27in /  1024.9hPa SSW 1.0mph /  1.6km/h 3.0mph /  4.8km/h 88% 0.00in /  0mm 44 W/m2
08:52 20.7 °F /  -6.3 °C 17.7 °F /  -7.9 °C 30.27in /  1024.9hPa SW 2.0mph /  3.2km/h 3.0mph /  4.8km/h 88% 0.00in /  0mm 47 W/m2
08:58 20.9 °F /  -6.2 °C 17.9 °F /  -7.8 °C 30.27in /  1024.9hPa SW 1.0mph /  1.6km/h 3.0mph /  4.8km/h 88% 0.00in /  0mm 49 W/m2
09:04 21.1 °F /  -6.1 °C 18.1 °F /  -7.7 °C 30.27in /  1024.9hPa SW 2.0mph /  3.2km/h 3.0mph /  4.8km/h 88% 0.00in /  0mm 56 W/m2
09:10 21.3 °F /  -5.9 °C 18.0 °F /  -7.8 °C 30.27in /  1024.9hPa SSW 2.0mph /  3.2km/h 2.0mph /  3.2km/h 87% 0.00in /  0mm 62 W/m2
09:16 21.5 °F /  -5.8 °C 18.2 °F /  -7.7 °C 30.27in /  1024.9hPa SW 3.0mph /  4.8km/h 5.0mph /  8km/h 87% 0.00in /  0mm 63 W/m2
09:22 21.8 °F /  -5.7 °C 18.3 °F /  -7.6 °C 30.27in /  1024.9hPa SW 3.0mph /  4.8km/h 6.0mph /  9.7km/h 86% 0.00in /  0mm 76 W/m2
09:28 22.1 °F /  -5.5 °C 18.3 °F /  -7.6 °C 30.28in /  1025.3hPa SSW 3.0mph /  4.8km/h 6.0mph /  9.7km/h 85% 0.00in /  0mm 79 W/m2
09:34 22.4 °F /  -5.3 °C 18.6 °F /  -7.4 °C 30.28in /  1025.3hPa SW 3.0mph /  4.8km/h 5.0mph /  8km/h 85% 0.00in /  0mm 81 W/m2
09:40 22.7 °F /  -5.2 °C 18.6 °F /  -7.4 °C 30.28in /  1025.3hPa SW 2.0mph /  3.2km/h 2.0mph /  3.2km/h 84% 0.00in /  0mm 90 W/m2
09:46 22.9 °F /  -5.1 °C 18.8 °F /  -7.3 °C 30.28in /  1025.3hPa WSW 2.0mph /  3.2km/h 4.0mph /  6.4km/h 84% 0.00in /  0mm 91 W/m2
09:52 23.2 °F /  -4.9 °C 18.8 °F /  -7.3 °C 30.29in /  1025.6hPa SW 3.0mph /  4.8km/h 3.0mph /  4.8km/h 83% 0.00in /  0mm 81 W/m2
09:58 23.3 °F /  -4.8 °C 18.6 °F /  -7.4 °C 30.29in /  1025.6hPa SW 3.0mph /  4.8km/h 4.0mph /  6.4km/h 82% 0.00in /  0mm 72 W/m2
10:04 23.3 °F /  -4.8 °C 18.3 °F /  -7.6 °C 30.29in /  1025.6hPa SW 3.0mph /  4.8km/h 6.0mph /  9.7km/h 81% 0.00in /  0mm 76 W/m2
10:10 23.5 °F /  -4.7 °C 18.5 °F /  -7.5 °C 30.29in /  1025.6hPa South 2.0mph /  3.2km/h 2.0mph /  3.2km/h 81% 0.00in /  0mm 142 W/m2
10:16 23.8 °F /  -4.6 °C 18.5 °F /  -7.5 °C 30.29in /  1025.6hPa SW 3.0mph /  4.8km/h 3.0mph /  4.8km/h 80% 0.00in /  0mm 137 W/m2
10:22 23.9 °F /  -4.5 °C 18.0 °F /  -7.8 °C 30.29in /  1025.6hPa West 4.0mph /  6.4km/h 5.0mph /  8km/h 78% 0.00in /  0mm 123 W/m2
10:28 24.0 °F /  -4.4 °C 17.5 °F /  -8.1 °C 30.29in /  1025.6hPa SSW 4.0mph /  6.4km/h 6.0mph /  9.7km/h 76% 0.00in /  0mm 141 W/m2
10:34 24.3 °F /  -4.3 °C 18.1 °F /  -7.7 °C 30.29in /  1025.6hPa SW 4.0mph /  6.4km/h 4.0mph /  6.4km/h 77% 0.00in /  0mm 137 W/m2
10:40 24.3 °F /  -4.3 °C 17.5 °F /  -8.1 °C 30.30in /  1026hPa SW 3.0mph /  4.8km/h 3.0mph /  4.8km/h 75% 0.00in /  0mm 105 W/m2
10:46 24.4 °F /  -4.2 °C 17.6 °F /  -8 °C 30.30in /  1026hPa WSW 4.0mph /  6.4km/h 5.0mph /  8km/h 75% 0.00in /  0mm 163 W/m2
10:52 24.5 °F /  -4.2 °C 17.1 °F /  -8.3 °C 30.31in /  1026.3hPa WSW 3.0mph /  4.8km/h 6.0mph /  9.7km/h 73% 0.00in /  0mm 127 W/m2
10:58 24.6 °F /  -4.1 °C 17.2 °F /  -8.2 °C 30.30in /  1026hPa SSW 5.0mph /  8km/h 7.0mph /  11.3km/h 73% 0.00in /  0mm 295 W/m2
11:04 24.9 °F /  -3.9 °C 17.1 °F /  -8.3 °C 30.31in /  1026.3hPa SW 5.0mph /  8km/h 7.0mph /  11.3km/h 72% 0.00in /  0mm 336 W/m2
11:10 25.6 °F /  -3.6 °C 17.8 °F /  -7.9 °C 30.30in /  1026hPa West 3.0mph /  4.8km/h 5.0mph /  8km/h 72% 0.00in /  0mm 380 W/m2
11:16 25.3 °F /  -3.7 °C 16.5 °F /  -8.6 °C 30.30in /  1026hPa West 4.0mph /  6.4km/h 10.0mph /  16.1km/h 69% 0.00in /  0mm 410 W/m2
11:22 25.5 °F /  -3.6 °C 16.7 °F /  -8.5 °C 30.31in /  1026.3hPa WSW 5.0mph /  8km/h 7.0mph /  11.3km/h 69% 0.00in /  0mm 318 W/m2
11:28 26.0 °F /  -3.3 °C 16.9 °F /  -8.4 °C 30.30in /  1026hPa West 3.0mph /  4.8km/h 7.0mph /  11.3km/h 68% 0.00in /  0mm 482 W/m2
11:34 26.6 °F /  -3 °C 17.5 °F /  -8.1 °C 30.30in /  1026hPa West 3.0mph /  4.8km/h 5.0mph /  8km/h 68% 0.00in /  0mm 424 W/m2
11:40 27.6 °F /  -2.4 °C 17.4 °F /  -8.1 °C 30.30in /  1026hPa West 3.0mph /  4.8km/h 3.0mph /  4.8km/h 65% 0.00in /  0mm 517 W/m2
11:46 27.1 °F /  -2.7 °C 16.5 °F /  -8.6 °C 30.30in /  1026hPa WNW 3.0mph /  4.8km/h 6.0mph /  9.7km/h 64% 0.00in /  0mm 455 W/m2
11:52 26.2 °F /  -3.2 °C 16.0 °F /  -8.9 °C 30.31in /  1026.3hPa SW 4.0mph /  6.4km/h 9.0mph /  14.5km/h 65% 0.00in /  0mm 221 W/m2
11:58 25.8 °F /  -3.4 °C 16.0 °F /  -8.9 °C 30.31in /  1026.3hPa West 4.0mph /  6.4km/h 9.0mph /  14.5km/h 66% 0.00in /  0mm 216 W/m2
12:04 26.0 °F /  -3.3 °C 16.2 °F /  -8.8 °C 30.31in /  1026.3hPa WNW 3.0mph /  4.8km/h 4.0mph /  6.4km/h 66% 0.00in /  0mm 178 W/m2
12:10 25.7 °F /  -3.5 °C 15.6 °F /  -9.1 °C 30.31in /  1026.3hPa West 3.0mph /  4.8km/h 4.0mph /  6.4km/h 65% 0.00in /  0mm 141 W/m2
12:16 25.6 °F /  -3.6 °C 15.5 °F /  -9.2 °C 30.31in /  1026.3hPa WSW 4.0mph /  6.4km/h 4.0mph /  6.4km/h 65% 0.00in /  0mm 188 W/m2
12:22 25.6 °F /  -3.6 °C 15.5 °F /  -9.2 °C 30.32in /  1026.6hPa WNW 4.0mph /  6.4km/h 8.0mph /  12.9km/h 65% 0.00in /  0mm 162 W/m2
12:28 25.4 °F /  -3.7 °C 15.3 °F /  -9.3 °C 30.31in /  1026.3hPa WSW 4.0mph /  6.4km/h 8.0mph /  12.9km/h 65% 0.00in /  0mm 155 W/m2
12:34 25.4 °F /  -3.7 °C 15.6 °F /  -9.1 °C 30.32in /  1026.6hPa West 5.0mph /  8km/h 7.0mph /  11.3km/h 66% 0.00in /  0mm 135 W/m2
12:40 25.4 °F /  -3.7 °C 15.6 °F /  -9.1 °C 30.32in /  1026.6hPa WSW 4.0mph /  6.4km/h 4.0mph /  6.4km/h 66% 0.00in /  0mm 127 W/m2
12:46 25.5 °F /  -3.6 °C 15.7 °F /  -9.1 °C 30.32in /  1026.6hPa West 2.0mph /  3.2km/h 8.0mph /  12.9km/h 66% 0.00in /  0mm 139 W/m2
12:52 25.5 °F /  -3.6 °C 15.7 °F /  -9.1 °C 30.32in /  1026.6hPa NW 3.0mph /  4.8km/h 4.0mph /  6.4km/h 66% 0.00in /  0mm 132 W/m2
12:58 25.4 °F /  -3.7 °C 15.6 °F /  -9.1 °C 30.32in /  1026.6hPa NW 3.0mph /  4.8km/h 5.0mph /  8km/h 66% 0.00in /  0mm 132 W/m2
13:04 25.4 °F /  -3.7 °C 15.6 °F /  -9.1 °C 30.32in /  1026.6hPa WNW 3.0mph /  4.8km/h 5.0mph /  8km/h 66% 0.00in /  0mm 123 W/m2
13:10 25.4 °F /  -3.7 °C 15.6 °F /  -9.1 °C 30.32in /  1026.6hPa West 3.0mph /  4.8km/h 3.0mph /  4.8km/h 66% 0.00in /  0mm 130 W/m2
13:16 25.4 °F /  -3.7 °C 15.3 °F /  -9.3 °C 30.32in /  1026.6hPa West 2.0mph /  3.2km/h 3.0mph /  4.8km/h 65% 0.00in /  0mm 137 W/m2
13:22 25.6 °F /  -3.6 °C 15.5 °F /  -9.2 °C 30.32in /  1026.6hPa WSW 2.0mph /  3.2km/h 7.0mph /  11.3km/h 65% 0.00in /  0mm 149 W/m2
13:28 25.5 °F /  -3.6 °C 15.4 °F /  -9.2 °C 30.32in /  1026.6hPa WSW 4.0mph /  6.4km/h 7.0mph /  11.3km/h 65% 0.00in /  0mm 179 W/m2
13:34 25.5 °F /  -3.6 °C 15.7 °F /  -9.1 °C 30.32in /  1026.6hPa WSW 4.0mph /  6.4km/h 5.0mph /  8km/h 66% 0.00in /  0mm 190 W/m2
13:40 25.7 °F /  -3.5 °C 15.9 °F /  -8.9 °C 30.32in /  1026.6hPa WNW 3.0mph /  4.8km/h 3.0mph /  4.8km/h 66% 0.00in /  0mm 199 W/m2
13:46 25.7 °F /  -3.5 °C 15.9 °F /  -8.9 °C 30.32in /  1026.6hPa NW 3.0mph /  4.8km/h 3.0mph /  4.8km/h 66% 0.00in /  0mm 174 W/m2
13:52 25.6 °F /  -3.6 °C 15.8 °F /  -9 °C 30.32in /  1026.6hPa West 4.0mph /  6.4km/h 4.0mph /  6.4km/h 66% 0.00in /  0mm 227 W/m2
13:58 25.6 °F /  -3.6 °C 15.8 °F /  -9 °C 30.33in /  1027hPa WNW 4.0mph /  6.4km/h 9.0mph /  14.5km/h 66% 0.00in /  0mm 211 W/m2
14:04 25.7 °F /  -3.5 °C 15.6 °F /  -9.1 °C 30.33in /  1027hPa NW 3.0mph /  4.8km/h 5.0mph /  8km/h 65% 0.00in /  0mm 172 W/m2
14:10 25.7 °F /  -3.5 °C 15.6 °F /  -9.1 °C 30.32in /  1026.6hPa WSW 3.0mph /  4.8km/h 6.0mph /  9.7km/h 65% 0.00in /  0mm 272 W/m2
14:16 26.3 °F /  -3.2 °C 15.8 °F /  -9 °C 30.33in /  1027hPa WNW 4.0mph /  6.4km/h 6.0mph /  9.7km/h 64% 0.00in /  0mm 207 W/m2
14:22 26.1 °F /  -3.3 °C 15.6 °F /  -9.1 °C 30.32in /  1026.6hPa West 3.0mph /  4.8km/h 3.0mph /  4.8km/h 64% 0.00in /  0mm 246 W/m2
14:28 26.2 °F /  -3.2 °C 15.3 °F /  -9.3 °C 30.33in /  1027hPa NW 3.0mph /  4.8km/h 7.0mph /  11.3km/h 63% 0.00in /  0mm 193 W/m2
14:34 25.9 °F /  -3.4 °C 15.0 °F /  -9.4 °C 30.33in /  1027hPa West 4.0mph /  6.4km/h 4.0mph /  6.4km/h 63% 0.00in /  0mm 171 W/m2
14:40 25.8 °F /  -3.4 °C 15.3 °F /  -9.3 °C 30.33in /  1027hPa SW 4.0mph /  6.4km/h 8.0mph /  12.9km/h 64% 0.00in /  0mm 283 W/m2
14:46 26.4 °F /  -3.1 °C 15.5 °F /  -9.2 °C 30.33in /  1027hPa WSW 3.0mph /  4.8km/h 8.0mph /  12.9km/h 63% 0.00in /  0mm 192 W/m2
14:52 25.9 °F /  -3.4 °C 14.7 °F /  -9.6 °C 30.33in /  1027hPa West 4.0mph /  6.4km/h 7.0mph /  11.3km/h 62% 0.00in /  0mm 142 W/m2
14:58 25.8 °F /  -3.4 °C 14.9 °F /  -9.5 °C 30.34in /  1027.3hPa WSW 4.0mph /  6.4km/h 7.0mph /  11.3km/h 63% 0.00in /  0mm 123 W/m2
15:04 25.7 °F /  -3.5 °C 14.8 °F /  -9.6 °C 30.34in /  1027.3hPa West 3.0mph /  4.8km/h 5.0mph /  8km/h 63% 0.00in /  0mm 148 W/m2
15:10 25.7 °F /  -3.5 °C 15.2 °F /  -9.3 °C 30.35in /  1027.7hPa WSW 4.0mph /  6.4km/h 4.0mph /  6.4km/h 64% 0.00in /  0mm 135 W/m2
15:16 25.7 °F /  -3.5 °C 15.2 °F /  -9.3 °C 30.35in /  1027.7hPa WSW 4.0mph /  6.4km/h 5.0mph /  8km/h 64% 0.00in /  0mm 113 W/m2
15:22 25.7 °F /  -3.5 °C 14.8 °F /  -9.6 °C 30.35in /  1027.7hPa WNW 3.0mph /  4.8km/h 3.0mph /  4.8km/h 63% 0.00in /  0mm 116 W/m2
15:28 25.7 °F /  -3.5 °C 14.8 °F /  -9.6 °C 30.35in /  1027.7hPa WNW 3.0mph /  4.8km/h 4.0mph /  6.4km/h 63% 0.00in /  0mm 128 W/m2
15:34 25.8 °F /  -3.4 °C 14.9 °F /  -9.5 °C 30.35in /  1027.7hPa NW 2.0mph /  3.2km/h 3.0mph /  4.8km/h 63% 0.00in /  0mm 120 W/m2
15:40 25.9 °F /  -3.4 °C 14.3 °F /  -9.8 °C 30.36in /  1028hPa WNW 3.0mph /  4.8km/h 4.0mph /  6.4km/h 61% 0.00in /  0mm 132 W/m2
15:46 25.9 °F /  -3.4 °C 14.7 °F /  -9.6 °C 30.37in /  1028.3hPa NW 3.0mph /  4.8km/h 4.0mph /  6.4km/h 62% 0.00in /  0mm 81 W/m2
15:52 25.5 °F /  -3.6 °C 14.6 °F /  -9.7 °C 30.38in /  1028.7hPa NNW 3.0mph /  4.8km/h 3.0mph /  4.8km/h 63% 0.00in /  0mm 63 W/m2
15:58 25.3 °F /  -3.7 °C 14.5 °F /  -9.7 °C 30.38in /  1028.7hPa NNW 3.0mph /  4.8km/h 3.0mph /  4.8km/h 63% 0.00in /  0mm 62 W/m2
16:04 25.2 °F /  -3.8 °C 14.4 °F /  -9.8 °C 30.39in /  1029hPa WNW 3.0mph /  4.8km/h 3.0mph /  4.8km/h 63% 0.00in /  0mm 47 W/m2
16:10 25.1 °F /  -3.8 °C 14.3 °F /  -9.8 °C 30.39in /  1029hPa NNW 2.0mph /  3.2km/h 2.0mph /  3.2km/h 63% 0.00in /  0mm 47 W/m2
16:16 25.1 °F /  -3.8 °C 14.3 °F /  -9.8 °C 30.40in /  1029.3hPa NNW 2.0mph /  3.2km/h 3.0mph /  4.8km/h 63% 0.00in /  0mm 47 W/m2
16:22 25.1 °F /  -3.8 °C 14.3 °F /  -9.8 °C 30.40in /  1029.3hPa NW 3.0mph /  4.8km/h 4.0mph /  6.4km/h 63% 0.00in /  0mm 51 W/m2
16:28 25.2 °F /  -3.8 °C 13.6 °F /  -10.2 °C 30.40in /  1029.3hPa NW 3.0mph /  4.8km/h 4.0mph /  6.4km/h 61% 0.00in /  0mm 74 W/m2
16:34 25.2 °F /  -3.8 °C 13.6 °F /  -10.2 °C 30.40in /  1029.3hPa NW 2.0mph /  3.2km/h 3.0mph /  4.8km/h 61% 0.00in /  0mm 60 W/m2
16:40 25.1 °F /  -3.8 °C 13.5 °F /  -10.3 °C 30.40in /  1029.3hPa West 2.0mph /  3.2km/h 3.0mph /  4.8km/h 61% 0.00in /  0mm 54 W/m2
16:46 24.9 °F /  -3.9 °C 13.7 °F /  -10.2 °C 30.40in /  1029.3hPa WNW 2.0mph /  3.2km/h 3.0mph /  4.8km/h 62% 0.00in /  0mm 46 W/m2
16:52 24.7 °F /  -4.1 °C 13.5 °F /  -10.3 °C 30.40in /  1029.3hPa WNW 2.0mph /  3.2km/h 4.0mph /  6.4km/h 62% 0.00in /  0mm 39 W/m2
16:58 24.5 °F /  -4.2 °C 13.3 °F /  -10.4 °C 30.40in /  1029.3hPa West 2.0mph /  3.2km/h 4.0mph /  6.4km/h 62% 0.00in /  0mm 28 W/m2
17:04 24.2 °F /  -4.3 °C 13.0 °F /  -10.6 °C 30.41in /  1029.7hPa West 1.0mph /  1.6km/h 2.0mph /  3.2km/h 62% 0.00in /  0mm 23 W/m2
17:10 24.0 °F /  -4.4 °C 13.2 °F /  -10.4 °C 30.41in /  1029.7hPa West 1.0mph /  1.6km/h 3.0mph /  4.8km/h 63% 0.00in /  0mm 14 W/m2
17:16 23.7 °F /  -4.6 °C 12.9 °F /  -10.6 °C 30.41in /  1029.7hPa West 1.0mph /  1.6km/h 3.0mph /  4.8km/h 63% 0.00in /  0mm 7 W/m2
17:22 23.4 °F /  -4.8 °C 12.6 °F /  -10.8 °C 30.41in /  1029.7hPa West 1.0mph /  1.6km/h 1.0mph /  1.6km/h 63% 0.00in /  0mm 5 W/m2
17:28 23.2 °F /  -4.9 °C 12.5 °F /  -10.8 °C 30.41in /  1029.7hPa Calm   1.0mph /  1.6km/h 63% 0.00in /  0mm 0 W/m2
17:34 22.7 °F /  -5.2 °C 12.3 °F /  -10.9 °C 30.42in /  1030hPa Calm     64% 0.00in /  0mm 0 W/m2
17:40 22.2 °F /  -5.4 °C 11.9 °F /  -11.2 °C 30.42in /  1030hPa Calm     64% 0.00in /  0mm 0 W/m2
17:46 21.7 °F /  -5.7 °C 11.7 °F /  -11.3 °C 30.42in /  1030hPa Calm     65% 0.00in /  0mm 0 W/m2
17:52 21.1 °F /  -6.1 °C 11.5 °F /  -11.4 °C 30.42in /  1030hPa Calm     66% 0.00in /  0mm 0 W/m2
17:58 20.4 °F /  -6.4 °C 11.2 °F /  -11.6 °C 30.43in /  1030.4hPa Calm     67% 0.00in /  0mm 0 W/m2
18:04 19.9 °F /  -6.7 °C 11.0 °F /  -11.7 °C 30.43in /  1030.4hPa Calm     68% 0.00in /  0mm 0 W/m2
18:10 19.5 °F /  -6.9 °C 11.0 °F /  -11.7 °C 30.43in /  1030.4hPa Calm     69% 0.00in /  0mm 0 W/m2
18:16 19.3 °F /  -7.1 °C 11.1 °F /  -11.6 °C 30.44in /  1030.7hPa Calm     70% 0.00in /  0mm 0 W/m2
18:22 19.0 °F /  -7.2 °C 10.8 °F /  -11.8 °C 30.44in /  1030.7hPa Calm     70% 0.00in /  0mm 0 W/m2
18:28 18.5 °F /  -7.5 °C 10.7 °F /  -11.8 °C 30.44in /  1030.7hPa Calm     71% 0.00in /  0mm 0 W/m2
18:34 17.9 °F /  -7.8 °C 10.1 °F /  -12.2 °C 30.44in /  1030.7hPa Calm     71% 0.00in /  0mm 0 W/m2
18:40 17.4 °F /  -8.1 °C 9.9 °F /  -12.3 °C 30.45in /  1031hPa Calm     72% 0.00in /  0mm 0 W/m2
18:46 16.8 °F /  -8.4 °C 9.3 °F /  -12.6 °C 30.45in /  1031hPa Calm     72% 0.00in /  0mm 0 W/m2
18:52 16.2 °F /  -8.8 °C 9.1 °F /  -12.7 °C 30.46in /  1031.4hPa Calm     73% 0.00in /  0mm 0 W/m2
18:58 15.6 °F /  -9.1 °C 8.8 °F /  -12.9 °C 30.46in /  1031.4hPa Calm     74% 0.00in /  0mm 0 W/m2
19:04 15.2 °F /  -9.3 °C 8.4 °F /  -13.1 °C 30.46in /  1031.4hPa Calm     74% 0.00in /  0mm 0 W/m2
19:10 14.8 °F /  -9.6 °C 8.3 °F /  -13.2 °C 30.46in /  1031.4hPa Calm     75% 0.00in /  0mm 0 W/m2
19:16 14.5 °F /  -9.7 °C 8.0 °F /  -13.3 °C 30.46in /  1031.4hPa Calm     75% 0.00in /  0mm 0 W/m2
19:22 13.9 °F /  -10.1 °C 7.7 °F /  -13.5 °C 30.46in /  1031.4hPa Calm     76% 0.00in /  0mm 0 W/m2
19:28 13.5 °F /  -10.3 °C 7.3 °F /  -13.7 °C 30.47in /  1031.7hPa Calm     76% 0.00in /  0mm 0 W/m2
19:34 13.2 °F /  -10.4 °C 7.3 °F /  -13.7 °C 30.48in /  1032.1hPa Calm     77% 0.00in /  0mm 0 W/m2
19:40 13.1 °F /  -10.5 °C 7.5 °F /  -13.6 °C 30.48in /  1032.1hPa Calm     78% 0.00in /  0mm 0 W/m2
19:46 13.0 °F /  -10.6 °C 7.7 °F /  -13.5 °C 30.48in /  1032.1hPa Calm     79% 0.00in /  0mm 0 W/m2
19:52 13.1 °F /  -10.5 °C 7.8 °F /  -13.4 °C 30.48in /  1032.1hPa Calm     79% 0.00in /  0mm 0 W/m2
19:58 13.4 °F /  -10.3 °C 8.4 °F /  -13.1 °C 30.48in /  1032.1hPa Calm     80% 0.00in /  0mm 0 W/m2
20:04 13.8 °F /  -10.1 °C 9.0 °F /  -12.8 °C 30.48in /  1032.1hPa Calm     81% 0.00in /  0mm 0 W/m2
20:10 13.9 °F /  -10.1 °C 9.1 °F /  -12.7 °C 30.48in /  1032.1hPa Calm     81% 0.00in /  0mm 0 W/m2
20:16 13.9 °F /  -10.1 °C 9.1 °F /  -12.7 °C 30.49in /  1032.4hPa Calm     81% 0.00in /  0mm 0 W/m2
20:22 14.0 °F /  -10 °C 9.2 °F /  -12.7 °C 30.49in /  1032.4hPa Calm     81% 0.00in /  0mm 0 W/m2
20:28 14.2 °F /  -9.9 °C 9.4 °F /  -12.6 °C 30.48in /  1032.1hPa Calm     81% 0.00in /  0mm 0 W/m2
20:34 14.3 °F /  -9.8 °C 9.5 °F /  -12.5 °C 30.49in /  1032.4hPa Calm     81% 0.00in /  0mm 0 W/m2
20:40 14.3 °F /  -9.8 °C 9.5 °F /  -12.5 °C 30.49in /  1032.4hPa Calm     81% 0.00in /  0mm 0 W/m2
20:46 14.3 °F /  -9.8 °C 9.5 °F /  -12.5 °C 30.49in /  1032.4hPa Calm     81% 0.00in /  0mm 0 W/m2
20:52 14.6 °F /  -9.7 °C 9.6 °F /  -12.4 °C 30.49in /  1032.4hPa Calm     80% 0.00in /  0mm 0 W/m2
20:58 15.0 °F /  -9.4 °C 9.9 °F /  -12.3 °C 30.49in /  1032.4hPa Calm     80% 0.00in /  0mm 0 W/m2
21:04 15.2 °F /  -9.3 °C 10.1 °F /  -12.2 °C 30.49in /  1032.4hPa Calm     80% 0.00in /  0mm 0 W/m2
21:10 15.4 °F /  -9.2 °C 10.1 °F /  -12.2 °C 30.49in /  1032.4hPa Calm     79% 0.00in /  0mm 0 W/m2
21:16 15.7 °F /  -9.1 °C 10.3 °F /  -12.1 °C 30.49in /  1032.4hPa Calm     79% 0.00in /  0mm 0 W/m2
21:22 16.0 °F /  -8.9 °C 10.3 °F /  -12.1 °C 30.49in /  1032.4hPa Calm     78% 0.00in /  0mm 0 W/m2
21:28 16.0 °F /  -8.9 °C 9.8 °F /  -12.3 °C 30.49in /  1032.4hPa Calm     76% 0.00in /  0mm 0 W/m2
21:34 16.6 °F /  -8.6 °C 10.3 °F /  -12.1 °C 30.49in /  1032.4hPa Calm   1.0mph /  1.6km/h 76% 0.00in /  0mm 0 W/m2
21:40 17.2 °F /  -8.2 °C 10.6 °F /  -11.9 °C 30.48in /  1032.1hPa Calm     75% 0.00in /  0mm 0 W/m2
21:46 17.3 °F /  -8.2 °C 10.1 °F /  -12.2 °C 30.49in /  1032.4hPa Calm     73% 0.00in /  0mm 0 W/m2
21:52 16.8 °F /  -8.4 °C 9.3 °F /  -12.6 °C 30.49in /  1032.4hPa Calm     72% 0.00in /  0mm 0 W/m2
21:58 16.1 °F /  -8.8 °C 8.7 °F /  -12.9 °C 30.48in /  1032.1hPa Calm     72% 0.00in /  0mm 0 W/m2
22:04 15.2 °F /  -9.3 °C 8.1 °F /  -13.3 °C 30.48in /  1032.1hPa Calm     73% 0.00in /  0mm 0 W/m2
22:10 14.2 °F /  -9.9 °C 7.4 °F /  -13.7 °C 30.48in /  1032.1hPa Calm     74% 0.00in /  0mm 0 W/m2
22:16 13.6 °F /  -10.2 °C 7.1 °F /  -13.8 °C 30.48in /  1032.1hPa Calm     75% 0.00in /  0mm 0 W/m2
22:22 13.2 °F /  -10.4 °C 6.8 °F /  -14 °C 30.48in /  1032.1hPa Calm     75% 0.00in /  0mm 0 W/m2
22:28 12.8 °F /  -10.7 °C 6.7 °F /  -14.1 °C 30.48in /  1032.1hPa Calm     76% 0.00in /  0mm 0 W/m2
22:34 12.5 °F /  -10.8 °C 6.7 °F /  -14.1 °C 30.49in /  1032.4hPa Calm     77% 0.00in /  0mm 0 W/m2
22:40 12.3 °F /  -10.9 °C 6.7 °F /  -14.1 °C 30.49in /  1032.4hPa Calm     78% 0.00in /  0mm 0 W/m2
22:46 12.1 °F /  -11.1 °C 6.6 °F /  -14.1 °C 30.49in /  1032.4hPa Calm     78% 0.00in /  0mm 0 W/m2
22:52 11.9 °F /  -11.2 °C 6.4 °F /  -14.2 °C 30.49in /  1032.4hPa Calm     78% 0.00in /  0mm 0 W/m2
22:58 11.5 °F /  -11.4 °C 6.2 °F /  -14.3 °C 30.49in /  1032.4hPa Calm     79% 0.00in /  0mm 0 W/m2
23:04 11.3 °F /  -11.5 °C 6.1 °F /  -14.4 °C 30.48in /  1032.1hPa Calm     79% 0.00in /  0mm 0 W/m2
23:10 11.1 °F /  -11.6 °C 5.9 °F /  -14.5 °C 30.48in /  1032.1hPa Calm     79% 0.00in /  0mm 0 W/m2
23:16 10.6 °F /  -11.9 °C 5.6 °F /  -14.7 °C 30.48in /  1032.1hPa Calm     80% 0.00in /  0mm 0 W/m2
23:22 10.3 °F /  -12.1 °C 5.4 °F /  -14.8 °C 30.49in /  1032.4hPa Calm     80% 0.00in /  0mm 0 W/m2
23:28 10.1 °F /  -12.2 °C 5.4 °F /  -14.8 °C 30.49in /  1032.4hPa Calm     81% 0.00in /  0mm 0 W/m2
23:34 9.8 °F /  -12.3 °C 5.1 °F /  -14.9 °C 30.49in /  1032.4hPa Calm   1.0mph /  1.6km/h 81% 0.00in /  0mm 0 W/m2
23:40 9.4 °F /  -12.6 °C 4.7 °F /  -15.2 °C 30.49in /  1032.4hPa Calm     81% 0.00in /  0mm 0 W/m2
23:46 9.3 °F /  -12.6 °C 4.9 °F /  -15.1 °C 30.49in /  1032.4hPa Calm     82% 0.00in /  0mm 0 W/m2
23:52 9.2 °F /  -12.7 °C 4.8 °F /  -15.1 °C 30.49in /  1032.4hPa Calm     82% 0.00in /  0mm 0 W/m2
23:58 9.1 °F /  -12.7 °C 4.7 °F /  -15.2 °C 30.49in /  1032.4hPa Calm     82% 0.00in /  0mm 0 W/m2
Country Meadow, Clay, NY, USA
Compliments of Weather Underground - 2 mb